sensor_id;sensor_type;location;lat;lon;timestamp;P1;durP1;ratioP1;P2;durP2;ratioP2
14096;SDS011;7125;48.106;11.544;2022-09-24T00:00:02;7.23;;;6.50;;
14096;SDS011;7125;48.106;11.544;2022-09-24T00:02:31;6.80;;;6.17;;
14096;SDS011;7125;48.106;11.544;2022-09-24T00:04:58;6.63;;;6.07;;
14096;SDS011;7125;48.106;11.544;2022-09-24T00:07:25;7.63;;;6.93;;
14096;SDS011;7125;48.106;11.544;2022-09-24T00:09:52;7.30;;;6.60;;
14096;SDS011;7125;48.106;11.544;2022-09-24T00:12:18;7.50;;;6.70;;
14096;SDS011;7125;48.106;11.544;2022-09-24T00:14:45;6.17;;;5.57;;
14096;SDS011;7125;48.106;11.544;2022-09-24T00:17:12;7.40;;;6.00;;
14096;SDS011;7125;48.106;11.544;2022-09-24T00:19:40;7.67;;;6.33;;
14096;SDS011;7125;48.106;11.544;2022-09-24T00:22:08;6.20;;;5.70;;
14096;SDS011;7125;48.106;11.544;2022-09-24T00:24:35;7.67;;;6.00;;
14096;SDS011;7125;48.106;11.544;2022-09-24T00:27:21;7.20;;;5.90;;
14096;SDS011;7125;48.106;11.544;2022-09-24T00:29:48;8.97;;;5.60;;
14096;SDS011;7125;48.106;11.544;2022-09-24T00:32:15;7.13;;;6.60;;
14096;SDS011;7125;48.106;11.544;2022-09-24T00:34:43;6.33;;;5.80;;
14096;SDS011;7125;48.106;11.544;2022-09-24T00:37:10;8.90;;;6.97;;
14096;SDS011;7125;48.106;11.544;2022-09-24T00:39:36;6.90;;;6.20;;
14096;SDS011;7125;48.106;11.544;2022-09-24T00:42:05;6.63;;;6.03;;
14096;SDS011;7125;48.106;11.544;2022-09-24T00:44:53;7.50;;;6.80;;
14096;SDS011;7125;48.106;11.544;2022-09-24T00:47:24;6.73;;;6.03;;
14096;SDS011;7125;48.106;11.544;2022-09-24T00:50:04;6.50;;;5.93;;
14096;SDS011;7125;48.106;11.544;2022-09-24T00:52:41;7.70;;;6.00;;
14096;SDS011;7125;48.106;11.544;2022-09-24T00:55:12;7.13;;;5.73;;
14096;SDS011;7125;48.106;11.544;2022-09-24T00:57:44;5.20;;;4.80;;
14096;SDS011;7125;48.106;11.544;2022-09-24T01:00:13;5.83;;;5.33;;
14096;SDS011;7125;48.106;11.544;2022-09-24T01:02:41;6.67;;;6.07;;
14096;SDS011;7125;48.106;11.544;2022-09-24T01:05:13;5.90;;;5.30;;
14096;SDS011;7125;48.106;11.544;2022-09-24T01:07:40;6.53;;;5.63;;
14096;SDS011;7125;48.106;11.544;2022-09-24T01:10:07;7.10;;;6.10;;
14096;SDS011;7125;48.106;11.544;2022-09-24T01:12:36;5.70;;;5.10;;
14096;SDS011;7125;48.106;11.544;2022-09-24T01:15:15;6.03;;;5.50;;
14096;SDS011;7125;48.106;11.544;2022-09-24T01:17:49;5.63;;;5.17;;
14096;SDS011;7125;48.106;11.544;2022-09-24T01:23:37;6.37;;;5.57;;
14096;SDS011;7125;48.106;11.544;2022-09-24T01:26:22;7.20;;;4.73;;
14096;SDS011;7125;48.106;11.544;2022-09-24T01:31:49;5.23;;;4.73;;
14096;SDS011;7125;48.106;11.544;2022-09-24T01:34:21;5.40;;;5.00;;
14096;SDS011;7125;48.106;11.544;2022-09-24T01:36:52;7.87;;;5.03;;
14096;SDS011;7125;48.106;11.544;2022-09-24T01:39:22;5.87;;;5.27;;
14096;SDS011;7125;48.106;11.544;2022-09-24T01:41:50;5.60;;;5.20;;
14096;SDS011;7125;48.106;11.544;2022-09-24T01:44:17;6.63;;;4.70;;
14096;SDS011;7125;48.106;11.544;2022-09-24T01:46:46;5.57;;;4.70;;
14096;SDS011;7125;48.106;11.544;2022-09-24T01:49:14;5.17;;;4.57;;
14096;SDS011;7125;48.106;11.544;2022-09-24T01:51:41;7.70;;;4.60;;
14096;SDS011;7125;48.106;11.544;2022-09-24T01:54:15;6.37;;;5.70;;
14096;SDS011;7125;48.106;11.544;2022-09-24T01:56:46;5.93;;;5.30;;
14096;SDS011;7125;48.106;11.544;2022-09-24T01:59:18;4.37;;;3.97;;
14096;SDS011;7125;48.106;11.544;2022-09-24T02:01:56;5.27;;;4.60;;
14096;SDS011;7125;48.106;11.544;2022-09-24T02:04:26;5.57;;;5.13;;
14096;SDS011;7125;48.106;11.544;2022-09-24T02:06:55;4.60;;;4.20;;
14096;SDS011;7125;48.106;11.544;2022-09-24T02:09:27;4.67;;;4.30;;
14096;SDS011;7125;48.106;11.544;2022-09-24T02:11:55;5.27;;;4.60;;
14096;SDS011;7125;48.106;11.544;2022-09-24T02:14:25;5.10;;;4.70;;
14096;SDS011;7125;48.106;11.544;2022-09-24T02:16:58;4.60;;;4.20;;
14096;SDS011;7125;48.106;11.544;2022-09-24T02:19:26;6.80;;;4.60;;
14096;SDS011;7125;48.106;11.544;2022-09-24T02:21:56;4.70;;;4.30;;
14096;SDS011;7125;48.106;11.544;2022-09-24T02:24:24;4.73;;;4.10;;
14096;SDS011;7125;48.106;11.544;2022-09-24T02:26:59;5.17;;;4.67;;
14096;SDS011;7125;48.106;11.544;2022-09-24T02:29:26;4.17;;;3.77;;
14096;SDS011;7125;48.106;11.544;2022-09-24T02:31:53;4.67;;;4.00;;
14096;SDS011;7125;48.106;11.544;2022-09-24T02:34:24;7.90;;;4.37;;
14096;SDS011;7125;48.106;11.544;2022-09-24T02:36:56;4.30;;;3.90;;
14096;SDS011;7125;48.106;11.544;2022-09-24T02:39:25;4.10;;;3.70;;
14096;SDS011;7125;48.106;11.544;2022-09-24T02:41:52;5.80;;;4.70;;
14096;SDS011;7125;48.106;11.544;2022-09-24T02:44:20;5.27;;;4.03;;
14096;SDS011;7125;48.106;11.544;2022-09-24T02:46:48;4.30;;;4.00;;
14096;SDS011;7125;48.106;11.544;2022-09-24T02:49:15;4.83;;;4.43;;
14096;SDS011;7125;48.106;11.544;2022-09-24T02:51:44;4.63;;;4.07;;
14096;SDS011;7125;48.106;11.544;2022-09-24T02:54:11;4.37;;;3.97;;
14096;SDS011;7125;48.106;11.544;2022-09-24T02:56:41;5.00;;;4.50;;
14096;SDS011;7125;48.106;11.544;2022-09-24T02:59:08;5.23;;;4.03;;
14096;SDS011;7125;48.106;11.544;2022-09-24T03:01:36;5.13;;;4.33;;
14096;SDS011;7125;48.106;11.544;2022-09-24T03:04:05;4.33;;;3.93;;
14096;SDS011;7125;48.106;11.544;2022-09-24T03:06:32;4.20;;;3.80;;
14096;SDS011;7125;48.106;11.544;2022-09-24T03:09:02;6.63;;;3.87;;
14096;SDS011;7125;48.106;11.544;2022-09-24T03:11:29;3.47;;;3.27;;
14096;SDS011;7125;48.106;11.544;2022-09-24T03:13:57;4.10;;;3.80;;
14096;SDS011;7125;48.106;11.544;2022-09-24T03:16:24;7.30;;;3.80;;
14096;SDS011;7125;48.106;11.544;2022-09-24T03:18:51;5.13;;;3.80;;
14096;SDS011;7125;48.106;11.544;2022-09-24T03:21:19;5.20;;;4.30;;
14096;SDS011;7125;48.106;11.544;2022-09-24T03:23:47;4.43;;;4.00;;
14096;SDS011;7125;48.106;11.544;2022-09-24T03:26:15;4.63;;;4.23;;
14096;SDS011;7125;48.106;11.544;2022-09-24T03:28:43;5.00;;;3.80;;
14096;SDS011;7125;48.106;11.544;2022-09-24T03:31:10;4.23;;;3.83;;
14096;SDS011;7125;48.106;11.544;2022-09-24T03:33:37;5.17;;;4.07;;
14096;SDS011;7125;48.106;11.544;2022-09-24T03:36:07;4.53;;;3.77;;
14096;SDS011;7125;48.106;11.544;2022-09-24T03:38:36;5.10;;;4.60;;
14096;SDS011;7125;48.106;11.544;2022-09-24T03:41:05;5.43;;;3.90;;
14096;SDS011;7125;48.106;11.544;2022-09-24T03:43:34;6.07;;;4.10;;
14096;SDS011;7125;48.106;11.544;2022-09-24T03:46:02;5.60;;;4.20;;
14096;SDS011;7125;48.106;11.544;2022-09-24T03:48:31;3.87;;;3.53;;
14096;SDS011;7125;48.106;11.544;2022-09-24T03:51:01;3.53;;;3.23;;
14096;SDS011;7125;48.106;11.544;2022-09-24T03:53:29;4.63;;;4.23;;
14096;SDS011;7125;48.106;11.544;2022-09-24T03:56:00;12.00;;;5.73;;
14096;SDS011;7125;48.106;11.544;2022-09-24T03:58:27;5.10;;;4.60;;
14096;SDS011;7125;48.106;11.544;2022-09-24T04:00:57;4.20;;;3.80;;
14096;SDS011;7125;48.106;11.544;2022-09-24T04:03:24;4.87;;;4.47;;
14096;SDS011;7125;48.106;11.544;2022-09-24T04:05:51;4.40;;;4.00;;
14096;SDS011;7125;48.106;11.544;2022-09-24T04:08:18;3.53;;;3.23;;
14096;SDS011;7125;48.106;11.544;2022-09-24T04:10:46;5.37;;;4.47;;
14096;SDS011;7125;48.106;11.544;2022-09-24T04:13:13;5.23;;;3.93;;
14096;SDS011;7125;48.106;11.544;2022-09-24T04:15:40;4.20;;;3.80;;
14096;SDS011;7125;48.106;11.544;2022-09-24T04:18:08;4.67;;;3.90;;
14096;SDS011;7125;48.106;11.544;2022-09-24T04:20:35;6.37;;;4.67;;
14096;SDS011;7125;48.106;11.544;2022-09-24T04:23:03;4.20;;;3.87;;
14096;SDS011;7125;48.106;11.544;2022-09-24T04:25:30;4.80;;;3.87;;
14096;SDS011;7125;48.106;11.544;2022-09-24T04:27:58;4.50;;;3.93;;
14096;SDS011;7125;48.106;11.544;2022-09-24T04:30:26;4.40;;;4.00;;
14096;SDS011;7125;48.106;11.544;2022-09-24T04:32:54;4.33;;;3.93;;
14096;SDS011;7125;48.106;11.544;2022-09-24T04:35:26;5.37;;;4.50;;
14096;SDS011;7125;48.106;11.544;2022-09-24T04:37:55;3.77;;;3.47;;
14096;SDS011;7125;48.106;11.544;2022-09-24T04:40:23;3.70;;;3.40;;
14096;SDS011;7125;48.106;11.544;2022-09-24T04:42:50;4.50;;;4.10;;
14096;SDS011;7125;48.106;11.544;2022-09-24T04:45:17;3.80;;;3.50;;
14096;SDS011;7125;48.106;11.544;2022-09-24T04:47:45;4.53;;;4.23;;
14096;SDS011;7125;48.106;11.544;2022-09-24T04:50:16;5.37;;;3.60;;
14096;SDS011;7125;48.106;11.544;2022-09-24T04:52:45;4.43;;;3.97;;
14096;SDS011;7125;48.106;11.544;2022-09-24T04:55:13;5.87;;;4.00;;
14096;SDS011;7125;48.106;11.544;2022-09-24T04:57:40;4.40;;;4.00;;
14096;SDS011;7125;48.106;11.544;2022-09-24T05:00:11;4.57;;;4.13;;
14096;SDS011;7125;48.106;11.544;2022-09-24T05:02:40;3.23;;;2.93;;
14096;SDS011;7125;48.106;11.544;2022-09-24T05:05:07;4.07;;;3.73;;
14096;SDS011;7125;48.106;11.544;2022-09-24T05:07:35;4.67;;;3.87;;
14096;SDS011;7125;48.106;11.544;2022-09-24T05:10:03;4.13;;;3.80;;
14096;SDS011;7125;48.106;11.544;2022-09-24T05:12:31;4.33;;;4.03;;
14096;SDS011;7125;48.106;11.544;2022-09-24T05:15:00;3.90;;;3.60;;
14096;SDS011;7125;48.106;11.544;2022-09-24T05:17:28;3.50;;;3.20;;
14096;SDS011;7125;48.106;11.544;2022-09-24T05:19:55;4.73;;;3.73;;
14096;SDS011;7125;48.106;11.544;2022-09-24T05:22:23;3.93;;;3.63;;
14096;SDS011;7125;48.106;11.544;2022-09-24T05:25:19;3.50;;;3.20;;
14096;SDS011;7125;48.106;11.544;2022-09-24T05:27:47;3.90;;;3.53;;
14096;SDS011;7125;48.106;11.544;2022-09-24T05:30:15;3.87;;;3.47;;
14096;SDS011;7125;48.106;11.544;2022-09-24T05:32:43;4.20;;;3.80;;
14096;SDS011;7125;48.106;11.544;2022-09-24T05:35:13;4.90;;;3.60;;
14096;SDS011;7125;48.106;11.544;2022-09-24T05:37:40;4.67;;;4.10;;
14096;SDS011;7125;48.106;11.544;2022-09-24T05:40:08;5.33;;;3.70;;
14096;SDS011;7125;48.106;11.544;2022-09-24T05:42:59;4.77;;;4.37;;
14096;SDS011;7125;48.106;11.544;2022-09-24T05:45:26;4.83;;;3.67;;
14096;SDS011;7125;48.106;11.544;2022-09-24T05:47:54;4.33;;;3.90;;
14096;SDS011;7125;48.106;11.544;2022-09-24T05:50:21;3.80;;;3.50;;
14096;SDS011;7125;48.106;11.544;2022-09-24T05:52:48;7.37;;;4.30;;
14096;SDS011;7125;48.106;11.544;2022-09-24T05:55:15;3.63;;;3.33;;
14096;SDS011;7125;48.106;11.544;2022-09-24T05:57:42;6.70;;;4.00;;
14096;SDS011;7125;48.106;11.544;2022-09-24T06:00:10;3.90;;;3.57;;
14096;SDS011;7125;48.106;11.544;2022-09-24T06:02:37;5.67;;;3.93;;
14096;SDS011;7125;48.106;11.544;2022-09-24T06:05:05;4.80;;;4.30;;
14096;SDS011;7125;48.106;11.544;2022-09-24T06:07:32;4.10;;;3.57;;
14096;SDS011;7125;48.106;11.544;2022-09-24T06:09:59;4.47;;;4.00;;
14096;SDS011;7125;48.106;11.544;2022-09-24T06:12:26;4.17;;;3.87;;
14096;SDS011;7125;48.106;11.544;2022-09-24T06:14:53;3.90;;;3.60;;
14096;SDS011;7125;48.106;11.544;2022-09-24T06:17:21;4.57;;;4.17;;
14096;SDS011;7125;48.106;11.544;2022-09-24T06:19:48;4.77;;;4.37;;
14096;SDS011;7125;48.106;11.544;2022-09-24T06:22:16;4.77;;;4.27;;
14096;SDS011;7125;48.106;11.544;2022-09-24T06:24:43;4.80;;;4.30;;
14096;SDS011;7125;48.106;11.544;2022-09-24T06:27:10;5.07;;;3.67;;
14096;SDS011;7125;48.106;11.544;2022-09-24T06:29:36;4.70;;;4.30;;
14096;SDS011;7125;48.106;11.544;2022-09-24T06:32:03;4.93;;;3.70;;
14096;SDS011;7125;48.106;11.544;2022-09-24T06:34:32;4.50;;;4.10;;
14096;SDS011;7125;48.106;11.544;2022-09-24T06:36:59;4.60;;;3.83;;
14096;SDS011;7125;48.106;11.544;2022-09-24T06:39:26;4.70;;;4.20;;
14096;SDS011;7125;48.106;11.544;2022-09-24T06:41:53;4.30;;;3.67;;
14096;SDS011;7125;48.106;11.544;2022-09-24T06:44:29;4.53;;;4.23;;
14096;SDS011;7125;48.106;11.544;2022-09-24T06:46:56;3.70;;;3.40;;
14096;SDS011;7125;48.106;11.544;2022-09-24T06:52:23;4.13;;;3.83;;
14096;SDS011;7125;48.106;11.544;2022-09-24T06:54:50;4.27;;;3.70;;
14096;SDS011;7125;48.106;11.544;2022-09-24T06:57:20;4.17;;;3.77;;
14096;SDS011;7125;48.106;11.544;2022-09-24T06:59:46;3.90;;;3.50;;
14096;SDS011;7125;48.106;11.544;2022-09-24T07:02:15;4.03;;;3.60;;
14096;SDS011;7125;48.106;11.544;2022-09-24T07:04:42;4.33;;;3.23;;
14096;SDS011;7125;48.106;11.544;2022-09-24T07:07:10;4.73;;;3.17;;
14096;SDS011;7125;48.106;11.544;2022-09-24T07:09:56;4.60;;;3.37;;
14096;SDS011;7125;48.106;11.544;2022-09-24T07:12:24;3.53;;;3.23;;
14096;SDS011;7125;48.106;11.544;2022-09-24T07:14:51;3.90;;;3.50;;
14096;SDS011;7125;48.106;11.544;2022-09-24T07:17:18;3.20;;;2.90;;
14096;SDS011;7125;48.106;11.544;2022-09-24T07:19:45;4.47;;;3.50;;
14096;SDS011;7125;48.106;11.544;2022-09-24T07:22:13;5.00;;;3.63;;
14096;SDS011;7125;48.106;11.544;2022-09-24T07:24:40;4.53;;;3.27;;
14096;SDS011;7125;48.106;11.544;2022-09-24T07:27:07;3.37;;;3.00;;
14096;SDS011;7125;48.106;11.544;2022-09-24T07:29:34;3.27;;;3.03;;
14096;SDS011;7125;48.106;11.544;2022-09-24T07:32:01;4.90;;;3.60;;
14096;SDS011;7125;48.106;11.544;2022-09-24T07:34:29;3.63;;;3.33;;
14096;SDS011;7125;48.106;11.544;2022-09-24T07:36:56;4.00;;;3.70;;
14096;SDS011;7125;48.106;11.544;2022-09-24T07:39:24;4.17;;;3.87;;
14096;SDS011;7125;48.106;11.544;2022-09-24T07:41:52;3.73;;;3.43;;
14096;SDS011;7125;48.106;11.544;2022-09-24T07:44:20;4.97;;;3.37;;
14096;SDS011;7125;48.106;11.544;2022-09-24T07:46:48;3.47;;;3.17;;
14096;SDS011;7125;48.106;11.544;2022-09-24T07:49:15;4.43;;;4.03;;
14096;SDS011;7125;48.106;11.544;2022-09-24T07:51:42;4.97;;;3.47;;
14096;SDS011;7125;48.106;11.544;2022-09-24T07:54:10;3.53;;;3.23;;
14096;SDS011;7125;48.106;11.544;2022-09-24T07:56:40;3.87;;;3.57;;
14096;SDS011;7125;48.106;11.544;2022-09-24T07:59:06;4.60;;;4.00;;
14096;SDS011;7125;48.106;11.544;2022-09-24T08:01:35;4.03;;;3.20;;
14096;SDS011;7125;48.106;11.544;2022-09-24T08:04:02;4.63;;;3.90;;
14096;SDS011;7125;48.106;11.544;2022-09-24T08:06:30;4.17;;;3.43;;
14096;SDS011;7125;48.106;11.544;2022-09-24T08:08:59;4.53;;;4.03;;
14096;SDS011;7125;48.106;11.544;2022-09-24T08:11:26;4.07;;;3.77;;
14096;SDS011;7125;48.106;11.544;2022-09-24T08:13:55;4.83;;;3.90;;
14096;SDS011;7125;48.106;11.544;2022-09-24T08:16:22;4.37;;;3.97;;
14096;SDS011;7125;48.106;11.544;2022-09-24T08:18:51;3.57;;;3.27;;
14096;SDS011;7125;48.106;11.544;2022-09-24T08:21:17;4.60;;;4.20;;
14096;SDS011;7125;48.106;11.544;2022-09-24T08:23:44;5.00;;;3.43;;
14096;SDS011;7125;48.106;11.544;2022-09-24T08:26:12;3.20;;;3.00;;
14096;SDS011;7125;48.106;11.544;2022-09-24T08:28:39;3.97;;;3.63;;
14096;SDS011;7125;48.106;11.544;2022-09-24T08:31:09;3.50;;;3.13;;
14096;SDS011;7125;48.106;11.544;2022-09-24T08:33:38;3.47;;;2.97;;
14096;SDS011;7125;48.106;11.544;2022-09-24T08:36:06;6.33;;;5.73;;
14096;SDS011;7125;48.106;11.544;2022-09-24T08:38:37;3.70;;;3.40;;
14096;SDS011;7125;48.106;11.544;2022-09-24T08:41:13;4.93;;;3.60;;
14096;SDS011;7125;48.106;11.544;2022-09-24T08:43:52;3.63;;;3.33;;
14096;SDS011;7125;48.106;11.544;2022-09-24T08:46:26;3.97;;;3.53;;
14096;SDS011;7125;48.106;11.544;2022-09-24T08:49:16;3.53;;;3.07;;
14096;SDS011;7125;48.106;11.544;2022-09-24T08:51:49;3.97;;;3.57;;
14096;SDS011;7125;48.106;11.544;2022-09-24T08:54:25;4.10;;;3.40;;
14096;SDS011;7125;48.106;11.544;2022-09-24T08:56:54;3.13;;;2.83;;
14096;SDS011;7125;48.106;11.544;2022-09-24T08:59:23;4.00;;;3.60;;
14096;SDS011;7125;48.106;11.544;2022-09-24T09:01:57;5.60;;;4.00;;
14096;SDS011;7125;48.106;11.544;2022-09-24T09:04:42;4.37;;;3.97;;
14096;SDS011;7125;48.106;11.544;2022-09-24T09:07:19;4.33;;;3.93;;
14096;SDS011;7125;48.106;11.544;2022-09-24T09:09:49;5.57;;;3.73;;
14096;SDS011;7125;48.106;11.544;2022-09-24T09:12:22;3.97;;;3.63;;
14096;SDS011;7125;48.106;11.544;2022-09-24T09:14:54;5.03;;;4.27;;
14096;SDS011;7125;48.106;11.544;2022-09-24T09:17:28;4.40;;;3.73;;
14096;SDS011;7125;48.106;11.544;2022-09-24T09:20:03;4.43;;;4.10;;
14096;SDS011;7125;48.106;11.544;2022-09-24T09:22:36;4.10;;;3.80;;
14096;SDS011;7125;48.106;11.544;2022-09-24T09:25:13;4.93;;;3.50;;
14096;SDS011;7125;48.106;11.544;2022-09-24T09:27:48;3.00;;;2.70;;
14096;SDS011;7125;48.106;11.544;2022-09-24T09:30:18;3.93;;;3.60;;
14096;SDS011;7125;48.106;11.544;2022-09-24T09:32:51;3.67;;;3.30;;
14096;SDS011;7125;48.106;11.544;2022-09-24T09:35:32;4.87;;;2.60;;
14096;SDS011;7125;48.106;11.544;2022-09-24T09:38:06;3.97;;;2.80;;
14096;SDS011;7125;48.106;11.544;2022-09-24T09:40:44;3.33;;;2.70;;
14096;SDS011;7125;48.106;11.544;2022-09-24T09:43:18;3.27;;;3.07;;
14096;SDS011;7125;48.106;11.544;2022-09-24T09:45:49;4.90;;;3.80;;
14096;SDS011;7125;48.106;11.544;2022-09-24T09:48:27;3.50;;;3.20;;
14096;SDS011;7125;48.106;11.544;2022-09-24T09:51:00;4.20;;;3.80;;
14096;SDS011;7125;48.106;11.544;2022-09-24T09:53:29;7.27;;;3.47;;
14096;SDS011;7125;48.106;11.544;2022-09-24T09:55:58;4.77;;;3.03;;
14096;SDS011;7125;48.106;11.544;2022-09-24T09:58:27;5.50;;;3.50;;
14096;SDS011;7125;48.106;11.544;2022-09-24T10:01:03;5.20;;;2.90;;
14096;SDS011;7125;48.106;11.544;2022-09-24T10:03:45;3.60;;;3.20;;
14096;SDS011;7125;48.106;11.544;2022-09-24T10:06:21;3.50;;;3.17;;
14096;SDS011;7125;48.106;11.544;2022-09-24T10:08:49;3.67;;;3.27;;
14096;SDS011;7125;48.106;11.544;2022-09-24T10:11:16;4.90;;;3.17;;
14096;SDS011;7125;48.106;11.544;2022-09-24T10:13:44;4.87;;;3.50;;
14096;SDS011;7125;48.106;11.544;2022-09-24T10:16:12;3.13;;;2.63;;
14096;SDS011;7125;48.106;11.544;2022-09-24T10:18:45;4.23;;;3.67;;
14096;SDS011;7125;48.106;11.544;2022-09-24T10:21:14;5.50;;;3.80;;
14096;SDS011;7125;48.106;11.544;2022-09-24T10:23:56;4.40;;;3.40;;
14096;SDS011;7125;48.106;11.544;2022-09-24T10:26:32;4.10;;;3.80;;
14096;SDS011;7125;48.106;11.544;2022-09-24T10:29:00;4.10;;;3.80;;
14096;SDS011;7125;48.106;11.544;2022-09-24T10:31:45;6.80;;;4.07;;
14096;SDS011;7125;48.106;11.544;2022-09-24T10:34:19;5.27;;;4.17;;
14096;SDS011;7125;48.106;11.544;2022-09-24T10:36:49;4.53;;;4.13;;
14096;SDS011;7125;48.106;11.544;2022-09-24T10:39:17;4.13;;;3.77;;
14096;SDS011;7125;48.106;11.544;2022-09-24T10:41:46;3.70;;;3.40;;
14096;SDS011;7125;48.106;11.544;2022-09-24T10:44:14;3.37;;;3.13;;
14096;SDS011;7125;48.106;11.544;2022-09-24T10:46:46;4.90;;;4.03;;
14096;SDS011;7125;48.106;11.544;2022-09-24T10:49:26;3.87;;;3.57;;
14096;SDS011;7125;48.106;11.544;2022-09-24T10:52:07;4.90;;;4.40;;
14096;SDS011;7125;48.106;11.544;2022-09-24T10:54:46;4.83;;;4.43;;
14096;SDS011;7125;48.106;11.544;2022-09-24T10:57:23;7.10;;;4.50;;
14096;SDS011;7125;48.106;11.544;2022-09-24T11:00:00;6.17;;;4.70;;
14096;SDS011;7125;48.106;11.544;2022-09-24T11:02:56;5.87;;;4.40;;
14096;SDS011;7125;48.106;11.544;2022-09-24T11:05:51;5.00;;;4.60;;
14096;SDS011;7125;48.106;11.544;2022-09-24T11:08:22;5.10;;;4.23;;
14096;SDS011;7125;48.106;11.544;2022-09-24T11:11:05;5.20;;;4.70;;
14096;SDS011;7125;48.106;11.544;2022-09-24T11:13:42;5.07;;;4.67;;
14096;SDS011;7125;48.106;11.544;2022-09-24T11:19:08;4.67;;;3.93;;
14096;SDS011;7125;48.106;11.544;2022-09-24T11:21:51;6.37;;;4.17;;
14096;SDS011;7125;48.106;11.544;2022-09-24T11:24:33;4.53;;;4.10;;
14096;SDS011;7125;48.106;11.544;2022-09-24T11:27:29;5.30;;;4.80;;
14096;SDS011;7125;48.106;11.544;2022-09-24T11:30:08;4.40;;;3.83;;
14096;SDS011;7125;48.106;11.544;2022-09-24T11:32:40;6.47;;;4.93;;
14096;SDS011;7125;48.106;11.544;2022-09-24T11:35:22;5.20;;;4.80;;
14096;SDS011;7125;48.106;11.544;2022-09-24T11:38:20;6.47;;;4.30;;
14096;SDS011;7125;48.106;11.544;2022-09-24T11:41:03;5.33;;;4.83;;
14096;SDS011;7125;48.106;11.544;2022-09-24T11:43:52;4.97;;;4.57;;
14096;SDS011;7125;48.106;11.544;2022-09-24T11:46:33;6.60;;;5.43;;
14096;SDS011;7125;48.106;11.544;2022-09-24T11:49:22;5.10;;;4.60;;
14096;SDS011;7125;48.106;11.544;2022-09-24T11:52:03;5.27;;;4.77;;
14096;SDS011;7125;48.106;11.544;2022-09-24T11:54:37;5.90;;;5.30;;
14096;SDS011;7125;48.106;11.544;2022-09-24T11:57:11;5.10;;;4.60;;
14096;SDS011;7125;48.106;11.544;2022-09-24T11:59:43;5.43;;;4.90;;
14096;SDS011;7125;48.106;11.544;2022-09-24T12:02:16;5.73;;;5.30;;
14096;SDS011;7125;48.106;11.544;2022-09-24T12:04:50;5.33;;;4.83;;
14096;SDS011;7125;48.106;11.544;2022-09-24T12:07:22;5.80;;;5.30;;
14096;SDS011;7125;48.106;11.544;2022-09-24T12:09:58;5.40;;;4.90;;
14096;SDS011;7125;48.106;11.544;2022-09-24T12:12:30;6.80;;;4.73;;
14096;SDS011;7125;48.106;11.544;2022-09-24T12:15:01;7.00;;;6.30;;
14096;SDS011;7125;48.106;11.544;2022-09-24T12:17:34;5.97;;;4.87;;
14096;SDS011;7125;48.106;11.544;2022-09-24T12:20:07;10.23;;;4.77;;
14096;SDS011;7125;48.106;11.544;2022-09-24T12:22:45;4.93;;;4.53;;
14096;SDS011;7125;48.106;11.544;2022-09-24T12:25:15;46.50;;;7.77;;
14096;SDS011;7125;48.106;11.544;2022-09-24T12:27:42;5.30;;;4.80;;
14096;SDS011;7125;48.106;11.544;2022-09-24T12:30:17;6.60;;;4.60;;
14096;SDS011;7125;48.106;11.544;2022-09-24T12:33:12;5.67;;;4.73;;
14096;SDS011;7125;48.106;11.544;2022-09-24T12:35:54;5.63;;;5.10;;
14096;SDS011;7125;48.106;11.544;2022-09-24T12:38:29;7.00;;;6.33;;
14096;SDS011;7125;48.106;11.544;2022-09-24T12:43:57;5.33;;;4.93;;
14096;SDS011;7125;48.106;11.544;2022-09-24T12:46:27;8.33;;;5.43;;
14096;SDS011;7125;48.106;11.544;2022-09-24T12:48:59;5.13;;;4.73;;
14096;SDS011;7125;48.106;11.544;2022-09-24T12:51:33;5.93;;;5.40;;
14096;SDS011;7125;48.106;11.544;2022-09-24T12:54:05;7.53;;;5.93;;
14096;SDS011;7125;48.106;11.544;2022-09-24T12:56:41;6.07;;;5.45;;
14096;SDS011;7125;48.106;11.544;2022-09-24T12:59:21;4.73;;;4.33;;
14096;SDS011;7125;48.106;11.544;2022-09-24T13:01:50;5.57;;;5.07;;
14096;SDS011;7125;48.106;11.544;2022-09-24T13:04:27;4.93;;;4.53;;
14096;SDS011;7125;48.106;11.544;2022-09-24T13:06:54;5.07;;;4.47;;
14096;SDS011;7125;48.106;11.544;2022-09-24T13:09:32;5.70;;;5.15;;
14096;SDS011;7125;48.106;11.544;2022-09-24T13:12:04;4.47;;;4.07;;
14096;SDS011;7125;48.106;11.544;2022-09-24T13:14:46;6.33;;;5.70;;
14096;SDS011;7125;48.106;11.544;2022-09-24T13:17:16;5.83;;;5.00;;
14096;SDS011;7125;48.106;11.544;2022-09-24T13:19:44;8.13;;;5.73;;
14096;SDS011;7125;48.106;11.544;2022-09-24T13:22:18;6.00;;;5.50;;
14096;SDS011;7125;48.106;11.544;2022-09-24T13:24:48;8.30;;;5.07;;
14096;SDS011;7125;48.106;11.544;2022-09-24T13:27:22;5.25;;;4.72;;
14096;SDS011;7125;48.106;11.544;2022-09-24T13:30:04;4.82;;;4.43;;
14096;SDS011;7125;48.106;11.544;2022-09-24T13:32:41;7.47;;;5.20;;
14096;SDS011;7125;48.106;11.544;2022-09-24T13:35:14;5.47;;;4.97;;
14096;SDS011;7125;48.106;11.544;2022-09-24T13:37:46;6.57;;;5.80;;
14096;SDS011;7125;48.106;11.544;2022-09-24T13:40:18;5.72;;;4.90;;
14096;SDS011;7125;48.106;11.544;2022-09-24T13:42:48;5.47;;;5.03;;
14096;SDS011;7125;48.106;11.544;2022-09-24T13:45:23;4.55;;;4.10;;
14096;SDS011;7125;48.106;11.544;2022-09-24T13:47:52;6.03;;;4.97;;
14096;SDS011;7125;48.106;11.544;2022-09-24T13:50:22;4.88;;;4.45;;
14096;SDS011;7125;48.106;11.544;2022-09-24T13:52:53;5.22;;;4.72;;
14096;SDS011;7125;48.106;11.544;2022-09-24T13:55:23;4.28;;;3.92;;
14096;SDS011;7125;48.106;11.544;2022-09-24T13:57:56;4.43;;;4.03;;
14096;SDS011;7125;48.106;11.544;2022-09-24T14:00:25;5.30;;;4.40;;
14096;SDS011;7125;48.106;11.544;2022-09-24T14:02:54;5.90;;;5.33;;
14096;SDS011;7125;48.106;11.544;2022-09-24T14:05:27;7.28;;;4.97;;
14096;SDS011;7125;48.106;11.544;2022-09-24T14:07:56;5.28;;;4.88;;
14096;SDS011;7125;48.106;11.544;2022-09-24T14:10:27;4.45;;;4.05;;
14096;SDS011;7125;48.106;11.544;2022-09-24T14:12:59;5.13;;;4.60;;
14096;SDS011;7125;48.106;11.544;2022-09-24T14:15:29;6.35;;;4.63;;
14096;SDS011;7125;48.106;11.544;2022-09-24T14:17:56;5.30;;;4.70;;
14096;SDS011;7125;48.106;11.544;2022-09-24T14:20:24;5.38;;;4.95;;
14096;SDS011;7125;48.106;11.544;2022-09-24T14:22:55;5.25;;;4.80;;
14096;SDS011;7125;48.106;11.544;2022-09-24T14:25:24;5.17;;;4.50;;
14096;SDS011;7125;48.106;11.544;2022-09-24T14:27:53;5.13;;;4.70;;
14096;SDS011;7125;48.106;11.544;2022-09-24T14:30:24;5.40;;;4.90;;
14096;SDS011;7125;48.106;11.544;2022-09-24T14:32:54;6.55;;;5.90;;
14096;SDS011;7125;48.106;11.544;2022-09-24T14:35:24;5.35;;;4.40;;
14096;SDS011;7125;48.106;11.544;2022-09-24T14:37:56;6.73;;;5.33;;
14096;SDS011;7125;48.106;11.544;2022-09-24T14:40:26;5.00;;;4.50;;
14096;SDS011;7125;48.106;11.544;2022-09-24T14:42:54;3.87;;;3.53;;
14096;SDS011;7125;48.106;11.544;2022-09-24T14:45:25;4.45;;;4.05;;
14096;SDS011;7125;48.106;11.544;2022-09-24T14:47:58;5.50;;;4.17;;
14096;SDS011;7125;48.106;11.544;2022-09-24T14:50:30;6.43;;;4.57;;
14096;SDS011;7125;48.106;11.544;2022-09-24T14:53:09;6.03;;;5.43;;
14096;SDS011;7125;48.106;11.544;2022-09-24T14:55:38;6.10;;;4.63;;
14096;SDS011;7125;48.106;11.544;2022-09-24T14:58:20;4.80;;;4.00;;
14096;SDS011;7125;48.106;11.544;2022-09-24T15:00:50;5.13;;;4.43;;
14096;SDS011;7125;48.106;11.544;2022-09-24T15:03:21;5.87;;;3.83;;
14096;SDS011;7125;48.106;11.544;2022-09-24T15:06:01;7.07;;;5.03;;
14096;SDS011;7125;48.106;11.544;2022-09-24T15:08:29;9.70;;;6.20;;
14096;SDS011;7125;48.106;11.544;2022-09-24T15:10:57;12.98;;;7.35;;
14096;SDS011;7125;48.106;11.544;2022-09-24T15:13:26;9.15;;;6.80;;
14096;SDS011;7125;48.106;11.544;2022-09-24T15:18:54;12.75;;;6.95;;
14096;SDS011;7125;48.106;11.544;2022-09-24T15:21:24;10.17;;;6.97;;
14096;SDS011;7125;48.106;11.544;2022-09-24T15:23:52;8.20;;;6.03;;
14096;SDS011;7125;48.106;11.544;2022-09-24T15:26:21;7.73;;;5.70;;
14096;SDS011;7125;48.106;11.544;2022-09-24T15:28:50;6.90;;;5.65;;